West Coxsackie, New York
Current Conditions -  °F | °C
As of 6:51 PM on Sunday 23 Nov 2014 (Local Time) from KALB Reporting Station
Overcast Overcast  
Wind Chill: 51°   Ceiling: 25000
Heat Index: 51°   Visibility: 10mi
Dew Point: 29°   Wind: 6mph
Humidity: 43%   Direction: 160°SSE
Pressure: 30.05"   Gusts: NA
Location:  42.36°N, 73.82°W
Report Text: KALB 232351Z 16005KT 10SM FEW060 FEW095 OVC250 11/M02 A3005 RMK AO2 SLP176 T01061017 10117 20100 58008
Loading
Personal Weather Stations






























Interactive Weather Map New forecast layout! Learn more

10-Day Weather Forecast

Advertisements
Track Severe Weather on mobile